Terminal Aerodrome Forecast
Issued by NWS San Angelo, TX

Current Version | Previous Version | Text Only | Print | Product List | Glossary On
Versions: 1 2 3 4 5 6 7 8 9 10 11 12 13 14 15 16
000
FTUS44 KSJT 242321
TAFABI
TAF
KABI 242321Z 2500/2524 13014G20KT P6SM VCTS BKN050CB
      TEMPO 2501/2504 3SM TSRA BKN030CB
     FM250600 09010KT P6SM BKN050
     FM251000 01016G23KT P6SM BKN010=

USA.gov is the U.S. government's official web portal to all federal, state and local government web resources and services.